sensor_id;sensor_type;location;lat;lon;timestamp;temperature;humidity
47765;DHT22;33529;49.242;8.670;2024-01-06T00:00:08;4.10;99.90
47765;DHT22;33529;49.242;8.670;2024-01-06T00:02:38;4.10;99.90
47765;DHT22;33529;49.242;8.670;2024-01-06T00:05:08;4.10;99.90
47765;DHT22;33529;49.242;8.670;2024-01-06T00:07:38;4.00;99.90
47765;DHT22;33529;49.242;8.670;2024-01-06T00:10:08;4.00;99.90
47765;DHT22;33529;49.242;8.670;2024-01-06T00:12:35;3.90;99.90
47765;DHT22;33529;49.242;8.670;2024-01-06T00:15:05;3.90;99.90
47765;DHT22;33529;49.242;8.670;2024-01-06T00:17:32;3.90;99.90
47765;DHT22;33529;49.242;8.670;2024-01-06T00:20:02;3.90;99.90
47765;DHT22;33529;49.242;8.670;2024-01-06T00:22:35;3.80;99.90
47765;DHT22;33529;49.242;8.670;2024-01-06T00:25:10;3.90;99.90
47765;DHT22;33529;49.242;8.670;2024-01-06T00:27:36;3.90;99.90
47765;DHT22;33529;49.242;8.670;2024-01-06T00:30:04;3.90;99.90
47765;DHT22;33529;49.242;8.670;2024-01-06T00:32:31;3.90;99.90
47765;DHT22;33529;49.242;8.670;2024-01-06T00:35:01;3.80;99.90
47765;DHT22;33529;49.242;8.670;2024-01-06T00:37:29;3.80;99.90
47765;DHT22;33529;49.242;8.670;2024-01-06T00:39:56;3.80;99.90
47765;DHT22;33529;49.242;8.670;2024-01-06T00:42:23;3.80;99.90
47765;DHT22;33529;49.242;8.670;2024-01-06T00:44:50;3.90;99.90
47765;DHT22;33529;49.242;8.670;2024-01-06T00:47:17;3.80;99.90
47765;DHT22;33529;49.242;8.670;2024-01-06T00:49:44;3.90;99.90
47765;DHT22;33529;49.242;8.670;2024-01-06T00:52:12;3.90;99.90
47765;DHT22;33529;49.242;8.670;2024-01-06T00:54:39;3.90;99.90
47765;DHT22;33529;49.242;8.670;2024-01-06T00:57:06;3.90;99.90
47765;DHT22;33529;49.242;8.670;2024-01-06T00:59:33;3.90;99.90
47765;DHT22;33529;49.242;8.670;2024-01-06T01:02:00;3.90;99.90
47765;DHT22;33529;49.242;8.670;2024-01-06T01:04:27;3.80;99.90
47765;DHT22;33529;49.242;8.670;2024-01-06T01:06:54;3.80;99.90
47765;DHT22;33529;49.242;8.670;2024-01-06T01:09:21;3.80;99.90
47765;DHT22;33529;49.242;8.670;2024-01-06T01:11:48;3.70;99.90
47765;DHT22;33529;49.242;8.670;2024-01-06T01:14:15;3.70;99.90
47765;DHT22;33529;49.242;8.670;2024-01-06T01:16:45;3.70;99.90
47765;DHT22;33529;49.242;8.670;2024-01-06T01:19:12;3.70;99.90
47765;DHT22;33529;49.242;8.670;2024-01-06T01:21:41;3.80;99.90
47765;DHT22;33529;49.242;8.670;2024-01-06T01:24:09;3.80;99.90
47765;DHT22;33529;49.242;8.670;2024-01-06T01:26:36;3.80;99.90
47765;DHT22;33529;49.242;8.670;2024-01-06T01:29:03;3.80;99.90
47765;DHT22;33529;49.242;8.670;2024-01-06T01:31:30;3.80;99.90
47765;DHT22;33529;49.242;8.670;2024-01-06T01:33:57;3.80;99.90
47765;DHT22;33529;49.242;8.670;2024-01-06T01:36:24;3.80;99.90
47765;DHT22;33529;49.242;8.670;2024-01-06T01:38:52;3.80;99.90
47765;DHT22;33529;49.242;8.670;2024-01-06T01:41:19;3.80;99.90
47765;DHT22;33529;49.242;8.670;2024-01-06T01:43:46;3.90;99.90
47765;DHT22;33529;49.242;8.670;2024-01-06T01:46:13;3.90;99.90
47765;DHT22;33529;49.242;8.670;2024-01-06T01:48:41;3.90;99.90
47765;DHT22;33529;49.242;8.670;2024-01-06T01:51:11;3.90;99.90
47765;DHT22;33529;49.242;8.670;2024-01-06T01:53:38;3.90;99.90
47765;DHT22;33529;49.242;8.670;2024-01-06T01:56:06;3.90;99.90
47765;DHT22;33529;49.242;8.670;2024-01-06T01:58:35;3.90;99.90
47765;DHT22;33529;49.242;8.670;2024-01-06T02:01:06;3.90;99.90
47765;DHT22;33529;49.242;8.670;2024-01-06T02:03:34;3.90;99.90
47765;DHT22;33529;49.242;8.670;2024-01-06T02:06:02;3.90;99.90
47765;DHT22;33529;49.242;8.670;2024-01-06T02:08:29;3.80;99.90
47765;DHT22;33529;49.242;8.670;2024-01-06T02:10:56;3.80;99.90
47765;DHT22;33529;49.242;8.670;2024-01-06T02:13:23;3.80;99.90
47765;DHT22;33529;49.242;8.670;2024-01-06T02:15:50;3.70;99.90
47765;DHT22;33529;49.242;8.670;2024-01-06T02:18:19;3.70;99.90
47765;DHT22;33529;49.242;8.670;2024-01-06T02:20:48;3.70;99.90
47765;DHT22;33529;49.242;8.670;2024-01-06T02:23:15;3.70;99.90
47765;DHT22;33529;49.242;8.670;2024-01-06T02:25:43;3.70;99.90
47765;DHT22;33529;49.242;8.670;2024-01-06T02:28:10;3.70;99.90
47765;DHT22;33529;49.242;8.670;2024-01-06T02:30:36;3.80;99.90
47765;DHT22;33529;49.242;8.670;2024-01-06T02:33:17;3.80;99.90
47765;DHT22;33529;49.242;8.670;2024-01-06T02:35:51;3.90;99.90
47765;DHT22;33529;49.242;8.670;2024-01-06T02:38:18;4.00;99.90
47765;DHT22;33529;49.242;8.670;2024-01-06T02:40:46;4.10;99.90
47765;DHT22;33529;49.242;8.670;2024-01-06T02:43:13;4.10;99.90
47765;DHT22;33529;49.242;8.670;2024-01-06T02:45:41;4.10;99.90
47765;DHT22;33529;49.242;8.670;2024-01-06T02:48:08;4.10;99.90
47765;DHT22;33529;49.242;8.670;2024-01-06T02:50:35;4.10;99.90
47765;DHT22;33529;49.242;8.670;2024-01-06T02:53:02;4.20;99.90
47765;DHT22;33529;49.242;8.670;2024-01-06T02:55:29;4.30;99.90
47765;DHT22;33529;49.242;8.670;2024-01-06T02:57:56;4.40;99.90
47765;DHT22;33529;49.242;8.670;2024-01-06T03:00:23;4.40;99.90
47765;DHT22;33529;49.242;8.670;2024-01-06T03:02:50;4.40;99.90
47765;DHT22;33529;49.242;8.670;2024-01-06T03:05:17;4.40;99.90
47765;DHT22;33529;49.242;8.670;2024-01-06T03:07:44;4.40;99.90
47765;DHT22;33529;49.242;8.670;2024-01-06T03:10:11;4.40;99.90
47765;DHT22;33529;49.242;8.670;2024-01-06T03:12:38;4.50;99.90
47765;DHT22;33529;49.242;8.670;2024-01-06T03:15:06;4.40;99.90
47765;DHT22;33529;49.242;8.670;2024-01-06T03:17:33;4.50;99.90
47765;DHT22;33529;49.242;8.670;2024-01-06T03:20:03;4.50;99.90
47765;DHT22;33529;49.242;8.670;2024-01-06T03:22:30;4.60;99.90
47765;DHT22;33529;49.242;8.670;2024-01-06T03:24:57;4.50;99.90
47765;DHT22;33529;49.242;8.670;2024-01-06T03:27:24;4.50;99.90
47765;DHT22;33529;49.242;8.670;2024-01-06T03:29:51;4.50;99.90
47765;DHT22;33529;49.242;8.670;2024-01-06T03:32:18;4.60;99.90
47765;DHT22;33529;49.242;8.670;2024-01-06T03:34:45;4.50;99.90
47765;DHT22;33529;49.242;8.670;2024-01-06T03:37:12;4.50;99.90
47765;DHT22;33529;49.242;8.670;2024-01-06T03:39:39;4.50;99.90
47765;DHT22;33529;49.242;8.670;2024-01-06T03:42:06;4.50;99.90
47765;DHT22;33529;49.242;8.670;2024-01-06T03:44:33;4.60;99.90
47765;DHT22;33529;49.242;8.670;2024-01-06T03:47:01;4.60;99.90
47765;DHT22;33529;49.242;8.670;2024-01-06T03:49:28;4.60;99.90
47765;DHT22;33529;49.242;8.670;2024-01-06T03:51:58;4.70;99.90
47765;DHT22;33529;49.242;8.670;2024-01-06T03:54:25;4.70;99.90
47765;DHT22;33529;49.242;8.670;2024-01-06T03:56:52;4.70;99.90
47765;DHT22;33529;49.242;8.670;2024-01-06T03:59:21;4.70;99.90
47765;DHT22;33529;49.242;8.670;2024-01-06T04:01:48;4.70;99.90
47765;DHT22;33529;49.242;8.670;2024-01-06T04:04:15;4.70;99.90
47765;DHT22;33529;49.242;8.670;2024-01-06T04:06:42;4.70;99.90
47765;DHT22;33529;49.242;8.670;2024-01-06T04:09:09;4.70;99.90
47765;DHT22;33529;49.242;8.670;2024-01-06T04:11:36;4.70;99.90
47765;DHT22;33529;49.242;8.670;2024-01-06T04:14:06;4.70;99.90
47765;DHT22;33529;49.242;8.670;2024-01-06T04:16:33;4.80;99.90
47765;DHT22;33529;49.242;8.670;2024-01-06T04:19:00;4.70;99.90
47765;DHT22;33529;49.242;8.670;2024-01-06T04:21:27;4.70;99.90
47765;DHT22;33529;49.242;8.670;2024-01-06T04:23:54;4.70;99.90
47765;DHT22;33529;49.242;8.670;2024-01-06T04:26:22;4.70;99.90
47765;DHT22;33529;49.242;8.670;2024-01-06T04:28:49;4.70;99.90
47765;DHT22;33529;49.242;8.670;2024-01-06T04:31:16;4.70;99.90
47765;DHT22;33529;49.242;8.670;2024-01-06T04:33:43;4.70;99.90
47765;DHT22;33529;49.242;8.670;2024-01-06T04:36:10;4.70;99.90
47765;DHT22;33529;49.242;8.670;2024-01-06T04:38:37;4.70;99.90
47765;DHT22;33529;49.242;8.670;2024-01-06T04:41:04;4.70;99.90
47765;DHT22;33529;49.242;8.670;2024-01-06T04:43:31;4.80;99.90
47765;DHT22;33529;49.242;8.670;2024-01-06T04:45:58;4.80;99.90
47765;DHT22;33529;49.242;8.670;2024-01-06T04:48:25;4.90;99.90
47765;DHT22;33529;49.242;8.670;2024-01-06T04:50:52;4.80;99.90
47765;DHT22;33529;49.242;8.670;2024-01-06T04:53:19;4.80;99.90
47765;DHT22;33529;49.242;8.670;2024-01-06T04:55:49;4.80;99.90
47765;DHT22;33529;49.242;8.670;2024-01-06T04:58:16;4.80;99.90
47765;DHT22;33529;49.242;8.670;2024-01-06T05:00:43;4.80;99.90
47765;DHT22;33529;49.242;8.670;2024-01-06T05:03:11;4.90;99.90
47765;DHT22;33529;49.242;8.670;2024-01-06T05:05:38;4.80;99.90
47765;DHT22;33529;49.242;8.670;2024-01-06T05:08:06;4.80;99.90
47765;DHT22;33529;49.242;8.670;2024-01-06T05:10:33;4.90;99.90
47765;DHT22;33529;49.242;8.670;2024-01-06T05:13:00;4.90;99.90
47765;DHT22;33529;49.242;8.670;2024-01-06T05:15:28;4.90;99.90
47765;DHT22;33529;49.242;8.670;2024-01-06T05:17:55;4.90;99.90
47765;DHT22;33529;49.242;8.670;2024-01-06T05:20:22;4.90;99.90
47765;DHT22;33529;49.242;8.670;2024-01-06T05:22:50;5.00;99.90
47765;DHT22;33529;49.242;8.670;2024-01-06T05:25:17;5.00;99.90
47765;DHT22;33529;49.242;8.670;2024-01-06T05:27:43;5.00;99.90
47765;DHT22;33529;49.242;8.670;2024-01-06T05:30:11;4.90;99.90
47765;DHT22;33529;49.242;8.670;2024-01-06T05:32:38;4.90;99.90
47765;DHT22;33529;49.242;8.670;2024-01-06T05:35:05;4.90;99.90
47765;DHT22;33529;49.242;8.670;2024-01-06T05:37:33;4.90;99.90
47765;DHT22;33529;49.242;8.670;2024-01-06T05:40:00;5.00;99.90
47765;DHT22;33529;49.242;8.670;2024-01-06T05:42:29;5.00;99.90
47765;DHT22;33529;49.242;8.670;2024-01-06T05:44:56;5.00;99.90
47765;DHT22;33529;49.242;8.670;2024-01-06T05:47:23;5.00;99.90
47765;DHT22;33529;49.242;8.670;2024-01-06T05:49:50;5.10;99.90
47765;DHT22;33529;49.242;8.670;2024-01-06T05:52:17;5.00;99.90
47765;DHT22;33529;49.242;8.670;2024-01-06T05:54:44;5.10;99.90
47765;DHT22;33529;49.242;8.670;2024-01-06T05:57:11;5.10;99.90
47765;DHT22;33529;49.242;8.670;2024-01-06T05:59:39;5.10;99.90
47765;DHT22;33529;49.242;8.670;2024-01-06T06:02:05;5.10;99.90
47765;DHT22;33529;49.242;8.670;2024-01-06T06:04:32;5.20;99.90
47765;DHT22;33529;49.242;8.670;2024-01-06T06:07:02;5.20;99.90
47765;DHT22;33529;49.242;8.670;2024-01-06T06:09:29;5.10;99.90
47765;DHT22;33529;49.242;8.670;2024-01-06T06:11:56;5.20;99.90
47765;DHT22;33529;49.242;8.670;2024-01-06T06:14:23;5.20;99.90
47765;DHT22;33529;49.242;8.670;2024-01-06T06:16:53;5.20;99.90
47765;DHT22;33529;49.242;8.670;2024-01-06T06:19:20;5.10;99.90
47765;DHT22;33529;49.242;8.670;2024-01-06T06:21:47;4.90;99.90
47765;DHT22;33529;49.242;8.670;2024-01-06T06:24:14;4.90;99.90
47765;DHT22;33529;49.242;8.670;2024-01-06T06:26:41;4.90;99.90
47765;DHT22;33529;49.242;8.670;2024-01-06T06:29:08;4.90;99.90
47765;DHT22;33529;49.242;8.670;2024-01-06T06:31:37;5.00;99.90
47765;DHT22;33529;49.242;8.670;2024-01-06T06:34:06;5.00;99.90
47765;DHT22;33529;49.242;8.670;2024-01-06T06:36:35;5.00;99.90
47765;DHT22;33529;49.242;8.670;2024-01-06T06:39:02;5.00;99.90
47765;DHT22;33529;49.242;8.670;2024-01-06T06:41:31;5.10;99.90
47765;DHT22;33529;49.242;8.670;2024-01-06T06:43:57;5.00;99.90
47765;DHT22;33529;49.242;8.670;2024-01-06T06:46:25;5.00;99.90
47765;DHT22;33529;49.242;8.670;2024-01-06T06:48:52;5.00;99.90
47765;DHT22;33529;49.242;8.670;2024-01-06T06:51:19;5.10;99.90
47765;DHT22;33529;49.242;8.670;2024-01-06T06:53:48;5.10;99.90
47765;DHT22;33529;49.242;8.670;2024-01-06T06:56:17;5.10;99.90
47765;DHT22;33529;49.242;8.670;2024-01-06T06:58:44;5.10;99.90
47765;DHT22;33529;49.242;8.670;2024-01-06T07:01:14;5.10;99.90
47765;DHT22;33529;49.242;8.670;2024-01-06T07:03:42;5.10;99.90
47765;DHT22;33529;49.242;8.670;2024-01-06T07:06:12;5.10;99.90
47765;DHT22;33529;49.242;8.670;2024-01-06T07:08:39;5.10;99.90
47765;DHT22;33529;49.242;8.670;2024-01-06T07:11:06;5.20;99.90
47765;DHT22;33529;49.242;8.670;2024-01-06T07:13:36;5.20;99.90
47765;DHT22;33529;49.242;8.670;2024-01-06T07:16:03;5.20;99.90
47765;DHT22;33529;49.242;8.670;2024-01-06T07:18:43;5.20;99.90
47765;DHT22;33529;49.242;8.670;2024-01-06T07:21:12;5.20;99.90
47765;DHT22;33529;49.242;8.670;2024-01-06T07:23:39;5.20;99.90
47765;DHT22;33529;49.242;8.670;2024-01-06T07:26:06;5.20;99.90
47765;DHT22;33529;49.242;8.670;2024-01-06T07:28:35;5.20;99.90
47765;DHT22;33529;49.242;8.670;2024-01-06T07:31:02;5.20;99.90
47765;DHT22;33529;49.242;8.670;2024-01-06T07:33:29;5.30;99.90
47765;DHT22;33529;49.242;8.670;2024-01-06T07:35:56;5.30;99.90
47765;DHT22;33529;49.242;8.670;2024-01-06T07:38:23;5.20;99.90
47765;DHT22;33529;49.242;8.670;2024-01-06T07:40:49;5.20;99.90
47765;DHT22;33529;49.242;8.670;2024-01-06T07:43:16;5.30;99.90
47765;DHT22;33529;49.242;8.670;2024-01-06T07:45:43;5.30;99.90
47765;DHT22;33529;49.242;8.670;2024-01-06T07:48:10;5.30;99.90
47765;DHT22;33529;49.242;8.670;2024-01-06T07:50:37;5.30;99.90
47765;DHT22;33529;49.242;8.670;2024-01-06T07:53:04;5.40;99.90
47765;DHT22;33529;49.242;8.670;2024-01-06T07:55:31;5.30;99.90
47765;DHT22;33529;49.242;8.670;2024-01-06T07:57:58;5.30;99.90
47765;DHT22;33529;49.242;8.670;2024-01-06T08:00:25;5.40;99.90
47765;DHT22;33529;49.242;8.670;2024-01-06T08:02:52;5.30;99.90
47765;DHT22;33529;49.242;8.670;2024-01-06T08:05:19;5.40;99.90
47765;DHT22;33529;49.242;8.670;2024-01-06T08:07:46;5.40;99.90
47765;DHT22;33529;49.242;8.670;2024-01-06T08:10:13;5.40;99.90
47765;DHT22;33529;49.242;8.670;2024-01-06T08:12:43;5.50;99.90
47765;DHT22;33529;49.242;8.670;2024-01-06T08:15:11;5.50;99.90
47765;DHT22;33529;49.242;8.670;2024-01-06T08:17:37;5.60;99.90
47765;DHT22;33529;49.242;8.670;2024-01-06T08:20:08;5.60;99.90
47765;DHT22;33529;49.242;8.670;2024-01-06T08:22:35;5.60;99.90
47765;DHT22;33529;49.242;8.670;2024-01-06T08:25:02;5.60;99.90
47765;DHT22;33529;49.242;8.670;2024-01-06T08:27:29;5.60;99.90
47765;DHT22;33529;49.242;8.670;2024-01-06T08:29:56;5.60;99.90
47765;DHT22;33529;49.242;8.670;2024-01-06T08:32:26;5.60;99.90
47765;DHT22;33529;49.242;8.670;2024-01-06T08:34:53;5.70;99.90
47765;DHT22;33529;49.242;8.670;2024-01-06T08:37:20;5.70;99.90
47765;DHT22;33529;49.242;8.670;2024-01-06T08:39:46;5.80;99.90
47765;DHT22;33529;49.242;8.670;2024-01-06T08:42:14;5.80;99.90
47765;DHT22;33529;49.242;8.670;2024-01-06T08:44:41;5.80;99.90
47765;DHT22;33529;49.242;8.670;2024-01-06T08:47:08;5.90;99.90
47765;DHT22;33529;49.242;8.670;2024-01-06T08:49:35;5.90;99.90
47765;DHT22;33529;49.242;8.670;2024-01-06T08:52:02;5.80;99.90
47765;DHT22;33529;49.242;8.670;2024-01-06T08:54:29;5.80;99.90
47765;DHT22;33529;49.242;8.670;2024-01-06T08:56:56;5.80;99.90
47765;DHT22;33529;49.242;8.670;2024-01-06T08:59:23;5.80;99.90
47765;DHT22;33529;49.242;8.670;2024-01-06T09:01:50;5.80;99.90
47765;DHT22;33529;49.242;8.670;2024-01-06T09:04:18;5.80;99.90
47765;DHT22;33529;49.242;8.670;2024-01-06T09:06:45;5.80;99.90
47765;DHT22;33529;49.242;8.670;2024-01-06T09:09:13;5.80;99.90
47765;DHT22;33529;49.242;8.670;2024-01-06T09:11:40;5.70;99.90
47765;DHT22;33529;49.242;8.670;2024-01-06T09:14:08;5.70;99.90
47765;DHT22;33529;49.242;8.670;2024-01-06T09:16:37;5.70;99.90
47765;DHT22;33529;49.242;8.670;2024-01-06T09:19:06;5.80;99.90
47765;DHT22;33529;49.242;8.670;2024-01-06T09:21:35;5.70;99.90
47765;DHT22;33529;49.242;8.670;2024-01-06T09:24:03;5.80;99.90
47765;DHT22;33529;49.242;8.670;2024-01-06T09:26:33;5.70;99.90
47765;DHT22;33529;49.242;8.670;2024-01-06T09:29:01;5.70;99.90
47765;DHT22;33529;49.242;8.670;2024-01-06T09:31:31;5.80;99.90
47765;DHT22;33529;49.242;8.670;2024-01-06T09:34:01;5.80;99.90
47765;DHT22;33529;49.242;8.670;2024-01-06T09:36:33;5.80;99.90
47765;DHT22;33529;49.242;8.670;2024-01-06T09:39:00;5.80;99.90
47765;DHT22;33529;49.242;8.670;2024-01-06T09:41:27;5.80;99.90
47765;DHT22;33529;49.242;8.670;2024-01-06T09:43:54;5.90;99.90
47765;DHT22;33529;49.242;8.670;2024-01-06T09:46:25;5.90;99.90
47765;DHT22;33529;49.242;8.670;2024-01-06T09:48:53;5.90;99.90
47765;DHT22;33529;49.242;8.670;2024-01-06T09:51:22;5.90;99.90
47765;DHT22;33529;49.242;8.670;2024-01-06T09:56:18;5.90;99.90
47765;DHT22;33529;49.242;8.670;2024-01-06T09:58:45;5.80;99.90
47765;DHT22;33529;49.242;8.670;2024-01-06T10:01:13;5.80;99.90
47765;DHT22;33529;49.242;8.670;2024-01-06T10:03:41;5.80;99.90
47765;DHT22;33529;49.242;8.670;2024-01-06T10:06:08;5.80;99.90
47765;DHT22;33529;49.242;8.670;2024-01-06T10:08:36;5.90;99.90
47765;DHT22;33529;49.242;8.670;2024-01-06T10:11:03;6.00;99.90
47765;DHT22;33529;49.242;8.670;2024-01-06T10:13:30;5.90;99.90
47765;DHT22;33529;49.242;8.670;2024-01-06T10:15:57;5.90;99.90
47765;DHT22;33529;49.242;8.670;2024-01-06T10:18:25;5.90;99.90
47765;DHT22;33529;49.242;8.670;2024-01-06T10:20:53;6.00;99.90
47765;DHT22;33529;49.242;8.670;2024-01-06T10:23:22;6.00;99.90
47765;DHT22;33529;49.242;8.670;2024-01-06T10:25:54;6.00;99.90
47765;DHT22;33529;49.242;8.670;2024-01-06T10:28:24;6.00;99.90
47765;DHT22;33529;49.242;8.670;2024-01-06T10:30:52;6.10;99.90
47765;DHT22;33529;49.242;8.670;2024-01-06T10:33:21;6.00;99.90
47765;DHT22;33529;49.242;8.670;2024-01-06T10:35:49;6.00;99.90
47765;DHT22;33529;49.242;8.670;2024-01-06T10:38:17;6.00;99.90
47765;DHT22;33529;49.242;8.670;2024-01-06T10:41:01;6.20;99.90
47765;DHT22;33529;49.242;8.670;2024-01-06T10:43:34;6.30;99.90
47765;DHT22;33529;49.242;8.670;2024-01-06T10:46:03;6.30;99.90
47765;DHT22;33529;49.242;8.670;2024-01-06T10:48:35;6.40;99.90
47765;DHT22;33529;49.242;8.670;2024-01-06T10:51:02;6.40;99.90
47765;DHT22;33529;49.242;8.670;2024-01-06T10:53:34;6.40;99.90
47765;DHT22;33529;49.242;8.670;2024-01-06T10:56:06;6.40;99.90
47765;DHT22;33529;49.242;8.670;2024-01-06T10:58:45;6.50;99.90
47765;DHT22;33529;49.242;8.670;2024-01-06T11:01:13;6.40;99.90
47765;DHT22;33529;49.242;8.670;2024-01-06T11:03:47;6.40;99.90
47765;DHT22;33529;49.242;8.670;2024-01-06T11:06:15;6.50;99.90
47765;DHT22;33529;49.242;8.670;2024-01-06T11:09:04;6.50;99.90
47765;DHT22;33529;49.242;8.670;2024-01-06T11:11:35;6.60;99.90
47765;DHT22;33529;49.242;8.670;2024-01-06T11:14:24;6.60;99.90
47765;DHT22;33529;49.242;8.670;2024-01-06T11:16:52;6.50;99.90
47765;DHT22;33529;49.242;8.670;2024-01-06T11:22:23;6.50;99.90
47765;DHT22;33529;49.242;8.670;2024-01-06T11:24:51;6.80;99.90
47765;DHT22;33529;49.242;8.670;2024-01-06T11:27:21;6.80;99.90
47765;DHT22;33529;49.242;8.670;2024-01-06T11:29:52;6.80;99.90
47765;DHT22;33529;49.242;8.670;2024-01-06T11:32:29;6.80;99.90
47765;DHT22;33529;49.242;8.670;2024-01-06T11:35:10;6.90;99.90
47765;DHT22;33529;49.242;8.670;2024-01-06T11:37:52;6.90;99.90
47765;DHT22;33529;49.242;8.670;2024-01-06T11:40:24;6.90;99.90
47765;DHT22;33529;49.242;8.670;2024-01-06T11:43:09;6.70;99.90
47765;DHT22;33529;49.242;8.670;2024-01-06T11:45:40;6.70;99.90
47765;DHT22;33529;49.242;8.670;2024-01-06T11:48:09;6.80;99.90
47765;DHT22;33529;49.242;8.670;2024-01-06T11:50:38;6.90;99.90
47765;DHT22;33529;49.242;8.670;2024-01-06T11:53:06;6.80;99.90
47765;DHT22;33529;49.242;8.670;2024-01-06T11:55:40;6.80;99.90
47765;DHT22;33529;49.242;8.670;2024-01-06T11:58:09;6.80;99.90
47765;DHT22;33529;49.242;8.670;2024-01-06T12:00:36;6.80;99.90
47765;DHT22;33529;49.242;8.670;2024-01-06T12:03:06;6.70;99.90
47765;DHT22;33529;49.242;8.670;2024-01-06T12:05:33;6.80;99.90
47765;DHT22;33529;49.242;8.670;2024-01-06T12:08:02;6.80;99.90
47765;DHT22;33529;49.242;8.670;2024-01-06T12:10:31;6.70;99.90
47765;DHT22;33529;49.242;8.670;2024-01-06T12:13:04;6.80;99.90
47765;DHT22;33529;49.242;8.670;2024-01-06T12:15:32;6.80;99.90
47765;DHT22;33529;49.242;8.670;2024-01-06T12:18:02;6.80;99.90
47765;DHT22;33529;49.242;8.670;2024-01-06T12:20:29;6.80;99.90
47765;DHT22;33529;49.242;8.670;2024-01-06T12:22:56;6.80;99.90
47765;DHT22;33529;49.242;8.670;2024-01-06T12:25:24;6.80;99.90
47765;DHT22;33529;49.242;8.670;2024-01-06T12:27:53;6.80;99.90
47765;DHT22;33529;49.242;8.670;2024-01-06T12:30:23;6.70;99.90
47765;DHT22;33529;49.242;8.670;2024-01-06T12:32:51;6.80;99.90
47765;DHT22;33529;49.242;8.670;2024-01-06T12:35:20;6.80;99.90
47765;DHT22;33529;49.242;8.670;2024-01-06T12:37:48;6.90;99.90
47765;DHT22;33529;49.242;8.670;2024-01-06T12:40:16;6.80;99.90
47765;DHT22;33529;49.242;8.670;2024-01-06T12:42:44;6.80;99.90
47765;DHT22;33529;49.242;8.670;2024-01-06T12:45:12;6.90;99.90
47765;DHT22;33529;49.242;8.670;2024-01-06T12:47:39;7.00;99.90
47765;DHT22;33529;49.242;8.670;2024-01-06T12:50:08;7.00;99.90
47765;DHT22;33529;49.242;8.670;2024-01-06T12:52:35;7.00;99.90
47765;DHT22;33529;49.242;8.670;2024-01-06T12:55:02;6.90;99.90
47765;DHT22;33529;49.242;8.670;2024-01-06T12:57:30;6.80;99.90
47765;DHT22;33529;49.242;8.670;2024-01-06T12:59:57;6.80;99.90
47765;DHT22;33529;49.242;8.670;2024-01-06T13:02:24;6.70;99.90
47765;DHT22;33529;49.242;8.670;2024-01-06T13:04:51;6.60;99.90
47765;DHT22;33529;49.242;8.670;2024-01-06T13:07:18;6.60;99.90
47765;DHT22;33529;49.242;8.670;2024-01-06T13:09:45;6.60;99.90
47765;DHT22;33529;49.242;8.670;2024-01-06T13:12:12;6.60;99.90
47765;DHT22;33529;49.242;8.670;2024-01-06T13:14:39;6.60;99.90
47765;DHT22;33529;49.242;8.670;2024-01-06T13:17:08;6.50;99.90
47765;DHT22;33529;49.242;8.670;2024-01-06T13:19:36;6.60;99.90
47765;DHT22;33529;49.242;8.670;2024-01-06T13:22:03;6.60;99.90
47765;DHT22;33529;49.242;8.670;2024-01-06T13:24:30;6.60;99.90
47765;DHT22;33529;49.242;8.670;2024-01-06T13:26:56;6.60;99.90
47765;DHT22;33529;49.242;8.670;2024-01-06T13:29:25;6.60;99.90
47765;DHT22;33529;49.242;8.670;2024-01-06T13:31:52;6.70;99.90
47765;DHT22;33529;49.242;8.670;2024-01-06T13:34:21;6.60;99.90
47765;DHT22;33529;49.242;8.670;2024-01-06T13:36:49;6.70;99.90
47765;DHT22;33529;49.242;8.670;2024-01-06T13:39:17;6.60;99.90
47765;DHT22;33529;49.242;8.670;2024-01-06T13:41:48;6.70;99.90
47765;DHT22;33529;49.242;8.670;2024-01-06T13:44:15;6.70;99.90
47765;DHT22;33529;49.242;8.670;2024-01-06T13:46:42;6.70;99.90
47765;DHT22;33529;49.242;8.670;2024-01-06T13:49:11;6.70;99.90
47765;DHT22;33529;49.242;8.670;2024-01-06T13:51:40;6.70;99.90
47765;DHT22;33529;49.242;8.670;2024-01-06T13:54:07;6.60;99.90
47765;DHT22;33529;49.242;8.670;2024-01-06T13:56:35;6.70;99.90
47765;DHT22;33529;49.242;8.670;2024-01-06T13:59:04;6.70;99.90
47765;DHT22;33529;49.242;8.670;2024-01-06T14:01:31;6.70;99.90
47765;DHT22;33529;49.242;8.670;2024-01-06T14:03:59;6.80;99.90
47765;DHT22;33529;49.242;8.670;2024-01-06T14:06:27;6.90;99.90
47765;DHT22;33529;49.242;8.670;2024-01-06T14:08:57;7.00;99.90
47765;DHT22;33529;49.242;8.670;2024-01-06T14:11:26;6.90;99.90
47765;DHT22;33529;49.242;8.670;2024-01-06T14:13:53;6.90;99.90
47765;DHT22;33529;49.242;8.670;2024-01-06T14:16:20;6.90;99.90
47765;DHT22;33529;49.242;8.670;2024-01-06T14:18:47;6.90;99.90
47765;DHT22;33529;49.242;8.670;2024-01-06T14:21:15;6.90;99.90
47765;DHT22;33529;49.242;8.670;2024-01-06T14:23:46;6.90;99.90
47765;DHT22;33529;49.242;8.670;2024-01-06T14:26:16;6.80;99.90
47765;DHT22;33529;49.242;8.670;2024-01-06T14:28:48;6.80;99.90
47765;DHT22;33529;49.242;8.670;2024-01-06T14:31:20;6.80;99.90
47765;DHT22;33529;49.242;8.670;2024-01-06T14:33:49;6.80;99.90
47765;DHT22;33529;49.242;8.670;2024-01-06T14:36:20;6.80;99.90
47765;DHT22;33529;49.242;8.670;2024-01-06T14:38:49;6.80;99.90
47765;DHT22;33529;49.242;8.670;2024-01-06T14:41:18;6.80;99.90
47765;DHT22;33529;49.242;8.670;2024-01-06T14:43:45;6.70;99.90
47765;DHT22;33529;49.242;8.670;2024-01-06T14:46:12;6.70;99.90
47765;DHT22;33529;49.242;8.670;2024-01-06T14:48:40;6.70;99.90
47765;DHT22;33529;49.242;8.670;2024-01-06T14:51:07;6.60;99.90
47765;DHT22;33529;49.242;8.670;2024-01-06T14:53:34;6.70;99.90
47765;DHT22;33529;49.242;8.670;2024-01-06T14:56:01;6.70;99.90
47765;DHT22;33529;49.242;8.670;2024-01-06T14:58:30;6.70;99.90
47765;DHT22;33529;49.242;8.670;2024-01-06T15:00:57;6.70;99.90
47765;DHT22;33529;49.242;8.670;2024-01-06T15:03:26;6.70;99.90
47765;DHT22;33529;49.242;8.670;2024-01-06T15:05:53;6.70;99.90
47765;DHT22;33529;49.242;8.670;2024-01-06T15:08:20;6.70;99.90
47765;DHT22;33529;49.242;8.670;2024-01-06T15:10:47;6.80;99.90
47765;DHT22;33529;49.242;8.670;2024-01-06T15:13:14;6.70;99.90
47765;DHT22;33529;49.242;8.670;2024-01-06T15:15:41;6.80;99.90
47765;DHT22;33529;49.242;8.670;2024-01-06T15:18:09;6.70;99.90
47765;DHT22;33529;49.242;8.670;2024-01-06T15:20:37;6.70;99.90
47765;DHT22;33529;49.242;8.670;2024-01-06T15:23:04;6.70;99.90
47765;DHT22;33529;49.242;8.670;2024-01-06T15:25:31;6.70;99.90
47765;DHT22;33529;49.242;8.670;2024-01-06T15:27:58;6.70;99.90
47765;DHT22;33529;49.242;8.670;2024-01-06T15:30:25;6.70;99.90
47765;DHT22;33529;49.242;8.670;2024-01-06T15:32:52;6.70;99.90
47765;DHT22;33529;49.242;8.670;2024-01-06T15:35:19;6.70;99.90
47765;DHT22;33529;49.242;8.670;2024-01-06T15:37:49;6.70;99.90
47765;DHT22;33529;49.242;8.670;2024-01-06T15:40:16;6.70;99.90
47765;DHT22;33529;49.242;8.670;2024-01-06T15:42:43;6.70;99.90
47765;DHT22;33529;49.242;8.670;2024-01-06T15:45:10;6.70;99.90
47765;DHT22;33529;49.242;8.670;2024-01-06T15:47:38;6.70;99.90
47765;DHT22;33529;49.242;8.670;2024-01-06T15:50:09;6.70;99.90
47765;DHT22;33529;49.242;8.670;2024-01-06T15:52:41;6.70;99.90
47765;DHT22;33529;49.242;8.670;2024-01-06T15:55:11;6.60;99.90